sensor_id;sensor_type;location;lat;lon;timestamp;P1;durP1;ratioP1;P2;durP2;ratioP2
27265;SDS011;14766;51.380;13.762;2024-02-16T00:01:01;12.50;;;8.73;;
27265;SDS011;14766;51.380;13.762;2024-02-16T00:03:29;13.65;;;9.30;;
27265;SDS011;14766;51.380;13.762;2024-02-16T00:05:58;12.57;;;8.07;;
27265;SDS011;14766;51.380;13.762;2024-02-16T00:08:26;11.85;;;8.00;;
27265;SDS011;14766;51.380;13.762;2024-02-16T00:10:53;12.13;;;7.90;;
27265;SDS011;14766;51.380;13.762;2024-02-16T00:13:21;10.43;;;7.53;;
27265;SDS011;14766;51.380;13.762;2024-02-16T00:15:49;12.90;;;8.00;;
27265;SDS011;14766;51.380;13.762;2024-02-16T00:18:16;11.48;;;7.50;;
27265;SDS011;14766;51.380;13.762;2024-02-16T00:20:43;11.45;;;7.65;;
27265;SDS011;14766;51.380;13.762;2024-02-16T00:23:11;10.32;;;6.88;;
27265;SDS011;14766;51.380;13.762;2024-02-16T00:25:39;10.75;;;7.10;;
27265;SDS011;14766;51.380;13.762;2024-02-16T00:28:07;10.25;;;7.35;;
27265;SDS011;14766;51.380;13.762;2024-02-16T00:30:35;10.38;;;7.47;;
27265;SDS011;14766;51.380;13.762;2024-02-16T00:33:03;9.93;;;7.18;;
27265;SDS011;14766;51.380;13.762;2024-02-16T00:35:32;10.70;;;6.85;;
27265;SDS011;14766;51.380;13.762;2024-02-16T00:38:00;9.63;;;6.63;;
27265;SDS011;14766;51.380;13.762;2024-02-16T00:40:28;10.15;;;6.85;;
27265;SDS011;14766;51.380;13.762;2024-02-16T00:42:55;12.23;;;7.25;;
27265;SDS011;14766;51.380;13.762;2024-02-16T00:45:22;9.38;;;6.50;;
27265;SDS011;14766;51.380;13.762;2024-02-16T00:47:50;11.73;;;7.30;;
27265;SDS011;14766;51.380;13.762;2024-02-16T00:50:18;12.35;;;7.50;;
27265;SDS011;14766;51.380;13.762;2024-02-16T00:52:45;10.70;;;7.03;;
27265;SDS011;14766;51.380;13.762;2024-02-16T00:55:14;11.45;;;7.30;;
27265;SDS011;14766;51.380;13.762;2024-02-16T00:57:40;11.95;;;7.85;;
27265;SDS011;14766;51.380;13.762;2024-02-16T01:00:08;12.25;;;7.53;;
27265;SDS011;14766;51.380;13.762;2024-02-16T01:02:36;11.63;;;7.60;;
27265;SDS011;14766;51.380;13.762;2024-02-16T01:05:03;11.73;;;7.60;;
27265;SDS011;14766;51.380;13.762;2024-02-16T01:07:31;10.98;;;7.13;;
27265;SDS011;14766;51.380;13.762;2024-02-16T01:09:59;10.55;;;7.57;;
27265;SDS011;14766;51.380;13.762;2024-02-16T01:12:27;10.52;;;6.97;;
27265;SDS011;14766;51.380;13.762;2024-02-16T01:14:57;9.13;;;6.60;;
27265;SDS011;14766;51.380;13.762;2024-02-16T01:17:24;10.63;;;7.03;;
27265;SDS011;14766;51.380;13.762;2024-02-16T01:19:51;10.00;;;7.25;;
27265;SDS011;14766;51.380;13.762;2024-02-16T01:22:18;10.82;;;7.13;;
27265;SDS011;14766;51.380;13.762;2024-02-16T01:24:46;12.48;;;7.30;;
27265;SDS011;14766;51.380;13.762;2024-02-16T01:27:13;9.77;;;6.97;;
27265;SDS011;14766;51.380;13.762;2024-02-16T01:29:40;11.70;;;7.63;;
27265;SDS011;14766;51.380;13.762;2024-02-16T01:32:08;10.70;;;6.97;;
27265;SDS011;14766;51.380;13.762;2024-02-16T01:34:35;11.88;;;7.53;;
27265;SDS011;14766;51.380;13.762;2024-02-16T01:37:04;11.80;;;7.75;;
27265;SDS011;14766;51.380;13.762;2024-02-16T01:39:31;11.45;;;7.70;;
27265;SDS011;14766;51.380;13.762;2024-02-16T01:41:59;13.32;;;8.70;;
27265;SDS011;14766;51.380;13.762;2024-02-16T01:44:26;11.25;;;8.25;;
27265;SDS011;14766;51.380;13.762;2024-02-16T01:46:54;11.95;;;8.52;;
27265;SDS011;14766;51.380;13.762;2024-02-16T01:49:21;12.63;;;8.13;;
27265;SDS011;14766;51.380;13.762;2024-02-16T01:51:49;13.38;;;8.25;;
27265;SDS011;14766;51.380;13.762;2024-02-16T01:54:17;13.82;;;8.07;;
27265;SDS011;14766;51.380;13.762;2024-02-16T01:56:44;11.57;;;8.20;;
27265;SDS011;14766;51.380;13.762;2024-02-16T01:59:13;10.10;;;7.47;;
27265;SDS011;14766;51.380;13.762;2024-02-16T02:01:40;10.27;;;7.35;;
27265;SDS011;14766;51.380;13.762;2024-02-16T02:04:07;11.48;;;7.88;;
27265;SDS011;14766;51.380;13.762;2024-02-16T02:06:34;10.55;;;7.10;;
27265;SDS011;14766;51.380;13.762;2024-02-16T02:09:03;10.38;;;7.13;;
27265;SDS011;14766;51.380;13.762;2024-02-16T02:11:30;10.82;;;7.65;;
27265;SDS011;14766;51.380;13.762;2024-02-16T02:13:58;11.85;;;7.65;;
27265;SDS011;14766;51.380;13.762;2024-02-16T02:16:26;12.85;;;8.18;;
27265;SDS011;14766;51.380;13.762;2024-02-16T02:18:56;11.35;;;8.18;;
27265;SDS011;14766;51.380;13.762;2024-02-16T02:21:23;12.80;;;7.80;;
27265;SDS011;14766;51.380;13.762;2024-02-16T02:23:50;9.73;;;6.47;;
27265;SDS011;14766;51.380;13.762;2024-02-16T02:26:18;10.00;;;6.65;;
27265;SDS011;14766;51.380;13.762;2024-02-16T02:28:45;10.32;;;7.35;;
27265;SDS011;14766;51.380;13.762;2024-02-16T02:31:13;8.57;;;6.15;;
27265;SDS011;14766;51.380;13.762;2024-02-16T02:33:40;10.98;;;7.13;;
27265;SDS011;14766;51.380;13.762;2024-02-16T02:36:08;11.05;;;6.70;;
27265;SDS011;14766;51.380;13.762;2024-02-16T02:38:37;9.55;;;7.28;;
27265;SDS011;14766;51.380;13.762;2024-02-16T02:41:05;10.98;;;7.18;;
27265;SDS011;14766;51.380;13.762;2024-02-16T02:43:33;10.20;;;7.35;;
27265;SDS011;14766;51.380;13.762;2024-02-16T02:46:00;10.32;;;7.50;;
27265;SDS011;14766;51.380;13.762;2024-02-16T02:48:27;12.32;;;8.48;;
27265;SDS011;14766;51.380;13.762;2024-02-16T02:50:55;13.07;;;9.30;;
27265;SDS011;14766;51.380;13.762;2024-02-16T02:53:28;12.13;;;8.45;;
27265;SDS011;14766;51.380;13.762;2024-02-16T02:55:56;13.55;;;9.63;;
27265;SDS011;14766;51.380;13.762;2024-02-16T02:58:23;15.75;;;9.52;;
27265;SDS011;14766;51.380;13.762;2024-02-16T03:00:50;16.65;;;10.23;;
27265;SDS011;14766;51.380;13.762;2024-02-16T03:03:17;15.85;;;10.32;;
27265;SDS011;14766;51.380;13.762;2024-02-16T03:05:45;14.35;;;10.73;;
27265;SDS011;14766;51.380;13.762;2024-02-16T03:08:12;17.00;;;10.23;;
27265;SDS011;14766;51.380;13.762;2024-02-16T03:10:39;14.95;;;9.98;;
27265;SDS011;14766;51.380;13.762;2024-02-16T03:13:07;14.13;;;9.88;;
27265;SDS011;14766;51.380;13.762;2024-02-16T03:15:35;14.05;;;9.35;;
27265;SDS011;14766;51.380;13.762;2024-02-16T03:18:03;14.93;;;9.40;;
27265;SDS011;14766;51.380;13.762;2024-02-16T03:20:34;16.50;;;9.38;;
27265;SDS011;14766;51.380;13.762;2024-02-16T03:23:03;14.43;;;9.30;;
27265;SDS011;14766;51.380;13.762;2024-02-16T03:25:30;14.50;;;9.73;;
27265;SDS011;14766;51.380;13.762;2024-02-16T03:27:57;14.77;;;10.30;;
27265;SDS011;14766;51.380;13.762;2024-02-16T03:30:25;15.07;;;9.60;;
27265;SDS011;14766;51.380;13.762;2024-02-16T03:32:52;13.45;;;9.15;;
27265;SDS011;14766;51.380;13.762;2024-02-16T03:35:19;14.80;;;10.45;;
27265;SDS011;14766;51.380;13.762;2024-02-16T03:37:46;15.52;;;10.05;;
27265;SDS011;14766;51.380;13.762;2024-02-16T03:40:13;12.95;;;10.18;;
27265;SDS011;14766;51.380;13.762;2024-02-16T03:42:40;15.18;;;10.80;;
27265;SDS011;14766;51.380;13.762;2024-02-16T03:45:07;14.90;;;10.48;;
27265;SDS011;14766;51.380;13.762;2024-02-16T03:47:35;16.05;;;10.98;;
27265;SDS011;14766;51.380;13.762;2024-02-16T03:50:03;15.30;;;10.20;;
27265;SDS011;14766;51.380;13.762;2024-02-16T03:52:32;14.15;;;10.25;;
27265;SDS011;14766;51.380;13.762;2024-02-16T03:55:00;15.43;;;10.77;;
27265;SDS011;14766;51.380;13.762;2024-02-16T03:57:27;16.48;;;10.52;;
27265;SDS011;14766;51.380;13.762;2024-02-16T03:59:54;13.85;;;10.38;;
27265;SDS011;14766;51.380;13.762;2024-02-16T04:02:22;15.43;;;10.95;;
27265;SDS011;14766;51.380;13.762;2024-02-16T04:04:49;13.63;;;10.15;;
27265;SDS011;14766;51.380;13.762;2024-02-16T04:07:17;13.52;;;9.88;;
27265;SDS011;14766;51.380;13.762;2024-02-16T04:09:44;13.35;;;10.02;;
27265;SDS011;14766;51.380;13.762;2024-02-16T04:12:11;15.00;;;10.00;;
27265;SDS011;14766;51.380;13.762;2024-02-16T04:14:38;14.77;;;10.80;;
27265;SDS011;14766;51.380;13.762;2024-02-16T04:17:05;16.92;;;10.13;;
27265;SDS011;14766;51.380;13.762;2024-02-16T04:19:33;13.55;;;9.30;;
27265;SDS011;14766;51.380;13.762;2024-02-16T04:22:00;13.27;;;9.90;;
27265;SDS011;14766;51.380;13.762;2024-02-16T04:24:27;13.02;;;9.38;;
27265;SDS011;14766;51.380;13.762;2024-02-16T04:26:54;15.95;;;10.30;;
27265;SDS011;14766;51.380;13.762;2024-02-16T04:29:21;13.70;;;9.55;;
27265;SDS011;14766;51.380;13.762;2024-02-16T04:31:50;13.82;;;9.18;;
27265;SDS011;14766;51.380;13.762;2024-02-16T04:34:17;13.10;;;8.80;;
27265;SDS011;14766;51.380;13.762;2024-02-16T04:36:44;13.95;;;10.07;;
27265;SDS011;14766;51.380;13.762;2024-02-16T04:39:12;14.13;;;9.70;;
27265;SDS011;14766;51.380;13.762;2024-02-16T04:41:41;14.68;;;9.65;;
27265;SDS011;14766;51.380;13.762;2024-02-16T04:44:08;12.60;;;9.05;;
27265;SDS011;14766;51.380;13.762;2024-02-16T04:46:35;14.45;;;10.20;;
27265;SDS011;14766;51.380;13.762;2024-02-16T04:49:04;14.88;;;10.48;;
27265;SDS011;14766;51.380;13.762;2024-02-16T04:51:31;16.92;;;10.95;;
27265;SDS011;14766;51.380;13.762;2024-02-16T04:53:59;15.65;;;11.50;;
27265;SDS011;14766;51.380;13.762;2024-02-16T04:56:26;15.60;;;10.77;;
27265;SDS011;14766;51.380;13.762;2024-02-16T04:58:53;16.48;;;10.88;;
27265;SDS011;14766;51.380;13.762;2024-02-16T05:01:21;14.38;;;10.82;;
27265;SDS011;14766;51.380;13.762;2024-02-16T05:03:48;16.02;;;10.93;;
27265;SDS011;14766;51.380;13.762;2024-02-16T05:06:16;15.90;;;10.70;;
27265;SDS011;14766;51.380;13.762;2024-02-16T05:08:43;15.77;;;11.57;;
27265;SDS011;14766;51.380;13.762;2024-02-16T05:11:11;19.42;;;12.10;;
27265;SDS011;14766;51.380;13.762;2024-02-16T05:13:38;15.68;;;10.35;;
27265;SDS011;14766;51.380;13.762;2024-02-16T05:16:09;16.65;;;11.85;;
27265;SDS011;14766;51.380;13.762;2024-02-16T05:18:37;17.13;;;11.40;;
27265;SDS011;14766;51.380;13.762;2024-02-16T05:21:06;15.70;;;11.23;;
27265;SDS011;14766;51.380;13.762;2024-02-16T05:23:33;17.20;;;12.35;;
27265;SDS011;14766;51.380;13.762;2024-02-16T05:26:00;16.83;;;12.32;;
27265;SDS011;14766;51.380;13.762;2024-02-16T05:28:27;16.30;;;10.63;;
27265;SDS011;14766;51.380;13.762;2024-02-16T05:30:54;16.30;;;11.32;;
27265;SDS011;14766;51.380;13.762;2024-02-16T05:33:22;17.77;;;11.90;;
27265;SDS011;14766;51.380;13.762;2024-02-16T05:35:50;18.17;;;11.88;;
27265;SDS011;14766;51.380;13.762;2024-02-16T05:38:22;15.68;;;11.25;;
27265;SDS011;14766;51.380;13.762;2024-02-16T05:40:59;17.33;;;12.07;;
27265;SDS011;14766;51.380;13.762;2024-02-16T05:43:27;17.60;;;12.40;;
27265;SDS011;14766;51.380;13.762;2024-02-16T05:45:54;15.75;;;10.90;;
27265;SDS011;14766;51.380;13.762;2024-02-16T05:48:21;16.58;;;11.77;;
27265;SDS011;14766;51.380;13.762;2024-02-16T05:50:51;16.27;;;11.48;;
27265;SDS011;14766;51.380;13.762;2024-02-16T05:53:18;16.17;;;11.18;;
27265;SDS011;14766;51.380;13.762;2024-02-16T05:55:46;16.00;;;11.60;;
27265;SDS011;14766;51.380;13.762;2024-02-16T05:58:14;16.10;;;11.38;;
27265;SDS011;14766;51.380;13.762;2024-02-16T06:00:41;16.85;;;11.50;;
27265;SDS011;14766;51.380;13.762;2024-02-16T06:03:09;13.27;;;10.30;;
27265;SDS011;14766;51.380;13.762;2024-02-16T06:05:36;17.42;;;11.20;;
27265;SDS011;14766;51.380;13.762;2024-02-16T06:08:04;18.15;;;12.85;;
27265;SDS011;14766;51.380;13.762;2024-02-16T06:10:31;16.33;;;11.18;;
27265;SDS011;14766;51.380;13.762;2024-02-16T06:12:59;16.83;;;11.80;;
27265;SDS011;14766;51.380;13.762;2024-02-16T06:15:26;14.68;;;10.13;;
27265;SDS011;14766;51.380;13.762;2024-02-16T06:17:53;15.05;;;11.30;;
27265;SDS011;14766;51.380;13.762;2024-02-16T06:20:21;17.45;;;12.35;;
27265;SDS011;14766;51.380;13.762;2024-02-16T06:22:49;17.35;;;11.70;;
27265;SDS011;14766;51.380;13.762;2024-02-16T06:25:17;18.63;;;13.13;;
27265;SDS011;14766;51.380;13.762;2024-02-16T06:27:45;17.42;;;12.10;;
27265;SDS011;14766;51.380;13.762;2024-02-16T06:30:13;22.55;;;12.15;;
27265;SDS011;14766;51.380;13.762;2024-02-16T06:32:41;16.67;;;12.50;;
27265;SDS011;14766;51.380;13.762;2024-02-16T06:35:08;16.55;;;11.38;;
27265;SDS011;14766;51.380;13.762;2024-02-16T06:37:36;15.10;;;11.40;;
27265;SDS011;14766;51.380;13.762;2024-02-16T06:40:06;14.88;;;11.43;;
27265;SDS011;14766;51.380;13.762;2024-02-16T06:42:37;16.70;;;11.80;;
27265;SDS011;14766;51.380;13.762;2024-02-16T06:45:05;15.68;;;11.07;;
27265;SDS011;14766;51.380;13.762;2024-02-16T06:47:33;15.60;;;11.73;;
27265;SDS011;14766;51.380;13.762;2024-02-16T06:50:00;17.92;;;13.25;;
27265;SDS011;14766;51.380;13.762;2024-02-16T06:52:28;16.58;;;11.60;;
27265;SDS011;14766;51.380;13.762;2024-02-16T06:54:55;16.95;;;12.15;;
27265;SDS011;14766;51.380;13.762;2024-02-16T06:57:22;17.30;;;11.27;;
27265;SDS011;14766;51.380;13.762;2024-02-16T06:59:52;20.33;;;12.50;;
27265;SDS011;14766;51.380;13.762;2024-02-16T07:02:24;16.77;;;12.10;;
27265;SDS011;14766;51.380;13.762;2024-02-16T07:04:52;17.27;;;12.38;;
27265;SDS011;14766;51.380;13.762;2024-02-16T07:07:19;18.08;;;12.80;;
27265;SDS011;14766;51.380;13.762;2024-02-16T07:09:46;18.58;;;12.80;;
27265;SDS011;14766;51.380;13.762;2024-02-16T07:12:13;17.80;;;12.25;;
27265;SDS011;14766;51.380;13.762;2024-02-16T07:14:41;18.90;;;12.55;;
27265;SDS011;14766;51.380;13.762;2024-02-16T07:17:08;17.40;;;12.50;;
27265;SDS011;14766;51.380;13.762;2024-02-16T07:19:37;16.10;;;11.80;;
27265;SDS011;14766;51.380;13.762;2024-02-16T07:22:04;15.68;;;11.20;;
27265;SDS011;14766;51.380;13.762;2024-02-16T07:24:33;15.90;;;11.23;;
27265;SDS011;14766;51.380;13.762;2024-02-16T07:27:01;17.30;;;12.27;;
27265;SDS011;14766;51.380;13.762;2024-02-16T07:29:28;14.50;;;10.77;;
27265;SDS011;14766;51.380;13.762;2024-02-16T07:31:55;15.63;;;11.00;;
27265;SDS011;14766;51.380;13.762;2024-02-16T07:34:23;13.93;;;10.25;;
27265;SDS011;14766;51.380;13.762;2024-02-16T07:36:51;14.70;;;11.15;;
27265;SDS011;14766;51.380;13.762;2024-02-16T07:39:19;13.45;;;10.27;;
27265;SDS011;14766;51.380;13.762;2024-02-16T07:41:50;13.68;;;10.65;;
27265;SDS011;14766;51.380;13.762;2024-02-16T07:44:17;12.77;;;10.45;;
27265;SDS011;14766;51.380;13.762;2024-02-16T07:46:44;15.50;;;11.55;;
27265;SDS011;14766;51.380;13.762;2024-02-16T07:49:12;16.80;;;10.07;;
27265;SDS011;14766;51.380;13.762;2024-02-16T07:51:40;13.98;;;11.10;;
27265;SDS011;14766;51.380;13.762;2024-02-16T07:54:08;15.27;;;11.38;;
27265;SDS011;14766;51.380;13.762;2024-02-16T07:56:35;13.70;;;10.38;;
27265;SDS011;14766;51.380;13.762;2024-02-16T07:59:02;14.20;;;11.23;;
27265;SDS011;14766;51.380;13.762;2024-02-16T08:01:30;14.93;;;11.35;;
27265;SDS011;14766;51.380;13.762;2024-02-16T08:03:57;14.05;;;10.35;;
27265;SDS011;14766;51.380;13.762;2024-02-16T08:06:27;13.88;;;9.65;;
27265;SDS011;14766;51.380;13.762;2024-02-16T08:08:55;14.13;;;11.27;;
27265;SDS011;14766;51.380;13.762;2024-02-16T08:11:22;12.32;;;9.98;;
27265;SDS011;14766;51.380;13.762;2024-02-16T08:13:50;13.60;;;10.77;;
27265;SDS011;14766;51.380;13.762;2024-02-16T08:16:18;12.00;;;10.02;;
27265;SDS011;14766;51.380;13.762;2024-02-16T08:18:45;13.50;;;10.65;;
27265;SDS011;14766;51.380;13.762;2024-02-16T08:21:12;14.70;;;10.82;;
27265;SDS011;14766;51.380;13.762;2024-02-16T08:23:40;12.80;;;9.43;;
27265;SDS011;14766;51.380;13.762;2024-02-16T08:26:07;13.68;;;10.25;;
27265;SDS011;14766;51.380;13.762;2024-02-16T08:28:35;15.02;;;10.68;;
27265;SDS011;14766;51.380;13.762;2024-02-16T08:31:03;18.60;;;11.15;;
27265;SDS011;14766;51.380;13.762;2024-02-16T08:33:31;11.25;;;9.32;;
27265;SDS011;14766;51.380;13.762;2024-02-16T08:36:04;12.85;;;9.48;;
27265;SDS011;14766;51.380;13.762;2024-02-16T08:38:34;13.25;;;10.45;;
27265;SDS011;14766;51.380;13.762;2024-02-16T08:41:03;12.63;;;9.85;;
27265;SDS011;14766;51.380;13.762;2024-02-16T08:43:30;15.82;;;11.35;;
27265;SDS011;14766;51.380;13.762;2024-02-16T08:45:58;14.70;;;10.88;;
27265;SDS011;14766;51.380;13.762;2024-02-16T08:48:25;13.43;;;10.18;;
27265;SDS011;14766;51.380;13.762;2024-02-16T08:50:53;12.88;;;10.73;;
27265;SDS011;14766;51.380;13.762;2024-02-16T08:53:20;14.80;;;10.60;;
27265;SDS011;14766;51.380;13.762;2024-02-16T08:55:47;14.32;;;10.20;;
27265;SDS011;14766;51.380;13.762;2024-02-16T08:58:14;14.75;;;11.10;;
27265;SDS011;14766;51.380;13.762;2024-02-16T09:00:42;16.42;;;10.75;;
27265;SDS011;14766;51.380;13.762;2024-02-16T09:03:11;14.02;;;10.00;;
27265;SDS011;14766;51.380;13.762;2024-02-16T09:05:38;14.02;;;9.90;;
27265;SDS011;14766;51.380;13.762;2024-02-16T09:08:05;15.23;;;9.95;;
27265;SDS011;14766;51.380;13.762;2024-02-16T09:10:34;13.13;;;10.10;;
27265;SDS011;14766;51.380;13.762;2024-02-16T09:13:04;13.10;;;10.10;;
27265;SDS011;14766;51.380;13.762;2024-02-16T09:15:31;13.25;;;9.40;;
27265;SDS011;14766;51.380;13.762;2024-02-16T09:17:58;12.82;;;9.70;;
27265;SDS011;14766;51.380;13.762;2024-02-16T09:20:25;14.52;;;10.38;;
27265;SDS011;14766;51.380;13.762;2024-02-16T09:22:54;13.57;;;9.93;;
27265;SDS011;14766;51.380;13.762;2024-02-16T09:25:22;14.02;;;10.25;;
27265;SDS011;14766;51.380;13.762;2024-02-16T09:27:50;15.43;;;10.75;;
27265;SDS011;14766;51.380;13.762;2024-02-16T09:30:17;13.52;;;9.77;;
27265;SDS011;14766;51.380;13.762;2024-02-16T09:32:44;12.57;;;9.88;;
27265;SDS011;14766;51.380;13.762;2024-02-16T09:35:11;11.73;;;8.80;;
27265;SDS011;14766;51.380;13.762;2024-02-16T09:37:39;13.75;;;10.23;;
27265;SDS011;14766;51.380;13.762;2024-02-16T09:40:06;12.18;;;9.40;;
27265;SDS011;14766;51.380;13.762;2024-02-16T09:42:36;11.90;;;9.82;;
27265;SDS011;14766;51.380;13.762;2024-02-16T09:45:08;12.48;;;9.68;;
27265;SDS011;14766;51.380;13.762;2024-02-16T09:47:39;12.13;;;9.40;;
27265;SDS011;14766;51.380;13.762;2024-02-16T09:50:11;12.20;;;8.95;;
27265;SDS011;14766;51.380;13.762;2024-02-16T09:52:40;13.23;;;10.02;;
27265;SDS011;14766;51.380;13.762;2024-02-16T09:55:10;12.25;;;9.55;;
27265;SDS011;14766;51.380;13.762;2024-02-16T09:57:39;13.85;;;10.05;;
27265;SDS011;14766;51.380;13.762;2024-02-16T10:00:06;12.98;;;9.63;;
27265;SDS011;14766;51.380;13.762;2024-02-16T10:02:45;13.88;;;9.77;;
27265;SDS011;14766;51.380;13.762;2024-02-16T10:05:16;14.88;;;10.68;;
27265;SDS011;14766;51.380;13.762;2024-02-16T10:07:46;11.48;;;8.93;;
27265;SDS011;14766;51.380;13.762;2024-02-16T10:10:26;12.63;;;9.65;;
27265;SDS011;14766;51.380;13.762;2024-02-16T10:13:05;12.50;;;9.15;;
27265;SDS011;14766;51.380;13.762;2024-02-16T10:15:32;12.95;;;9.13;;
27265;SDS011;14766;51.380;13.762;2024-02-16T10:18:07;12.48;;;9.35;;
27265;SDS011;14766;51.380;13.762;2024-02-16T10:20:35;13.40;;;8.93;;
27265;SDS011;14766;51.380;13.762;2024-02-16T10:23:11;12.63;;;8.80;;
27265;SDS011;14766;51.380;13.762;2024-02-16T10:25:39;12.63;;;9.43;;
27265;SDS011;14766;51.380;13.762;2024-02-16T10:28:10;12.65;;;9.55;;
27265;SDS011;14766;51.380;13.762;2024-02-16T10:30:41;11.35;;;8.35;;
27265;SDS011;14766;51.380;13.762;2024-02-16T10:33:10;11.07;;;7.88;;
27265;SDS011;14766;51.380;13.762;2024-02-16T10:35:39;12.98;;;9.02;;
27265;SDS011;14766;51.380;13.762;2024-02-16T10:38:08;13.50;;;8.90;;
27265;SDS011;14766;51.380;13.762;2024-02-16T10:40:37;10.68;;;8.60;;
27265;SDS011;14766;51.380;13.762;2024-02-16T10:43:06;14.25;;;9.45;;
27265;SDS011;14766;51.380;13.762;2024-02-16T10:45:37;12.35;;;8.32;;
27265;SDS011;14766;51.380;13.762;2024-02-16T10:48:06;13.98;;;9.57;;
27265;SDS011;14766;51.380;13.762;2024-02-16T10:50:34;11.65;;;8.85;;
27265;SDS011;14766;51.380;13.762;2024-02-16T10:53:09;10.75;;;8.65;;
27265;SDS011;14766;51.380;13.762;2024-02-16T10:55:58;11.05;;;8.30;;
27265;SDS011;14766;51.380;13.762;2024-02-16T10:58:27;11.40;;;8.40;;
27265;SDS011;14766;51.380;13.762;2024-02-16T11:00:56;11.93;;;9.15;;
27265;SDS011;14766;51.380;13.762;2024-02-16T11:03:25;10.68;;;7.97;;
27265;SDS011;14766;51.380;13.762;2024-02-16T11:05:54;10.45;;;8.25;;
27265;SDS011;14766;51.380;13.762;2024-02-16T11:08:25;10.77;;;7.82;;
27265;SDS011;14766;51.380;13.762;2024-02-16T11:11:05;11.85;;;8.90;;
27265;SDS011;14766;51.380;13.762;2024-02-16T11:13:34;12.48;;;8.48;;
27265;SDS011;14766;51.380;13.762;2024-02-16T11:18:36;11.75;;;7.97;;
27265;SDS011;14766;51.380;13.762;2024-02-16T11:21:11;10.50;;;8.52;;
27265;SDS011;14766;51.380;13.762;2024-02-16T11:23:41;13.88;;;9.63;;
27265;SDS011;14766;51.380;13.762;2024-02-16T11:26:09;9.82;;;8.32;;
27265;SDS011;14766;51.380;13.762;2024-02-16T11:28:42;10.35;;;8.43;;
27265;SDS011;14766;51.380;13.762;2024-02-16T11:31:09;11.35;;;8.48;;
27265;SDS011;14766;51.380;13.762;2024-02-16T11:33:42;10.75;;;8.10;;
27265;SDS011;14766;51.380;13.762;2024-02-16T11:36:11;9.93;;;7.75;;
27265;SDS011;14766;51.380;13.762;2024-02-16T11:38:40;11.43;;;8.02;;
27265;SDS011;14766;51.380;13.762;2024-02-16T11:41:07;11.65;;;8.48;;
27265;SDS011;14766;51.380;13.762;2024-02-16T11:43:34;10.30;;;8.32;;
27265;SDS011;14766;51.380;13.762;2024-02-16T11:46:11;11.60;;;9.10;;
27265;SDS011;14766;51.380;13.762;2024-02-16T11:48:39;10.52;;;8.38;;
27265;SDS011;14766;51.380;13.762;2024-02-16T11:51:07;8.18;;;6.78;;
27265;SDS011;14766;51.380;13.762;2024-02-16T11:53:34;10.85;;;8.55;;
27265;SDS011;14766;51.380;13.762;2024-02-16T11:56:02;9.93;;;7.72;;
27265;SDS011;14766;51.380;13.762;2024-02-16T11:58:30;11.25;;;8.73;;
27265;SDS011;14766;51.380;13.762;2024-02-16T12:00:58;17.63;;;8.75;;
27265;SDS011;14766;51.380;13.762;2024-02-16T12:03:30;13.18;;;8.02;;
27265;SDS011;14766;51.380;13.762;2024-02-16T12:05:58;11.68;;;8.90;;
27265;SDS011;14766;51.380;13.762;2024-02-16T12:08:33;10.88;;;8.23;;
27265;SDS011;14766;51.380;13.762;2024-02-16T12:11:01;12.30;;;7.97;;
27265;SDS011;14766;51.380;13.762;2024-02-16T12:13:29;11.25;;;8.20;;
27265;SDS011;14766;51.380;13.762;2024-02-16T12:15:56;11.93;;;8.38;;
27265;SDS011;14766;51.380;13.762;2024-02-16T12:18:25;10.30;;;7.97;;
27265;SDS011;14766;51.380;13.762;2024-02-16T12:21:00;10.88;;;7.88;;
27265;SDS011;14766;51.380;13.762;2024-02-16T12:23:35;12.43;;;9.38;;
27265;SDS011;14766;51.380;13.762;2024-02-16T12:26:04;11.73;;;8.13;;
27265;SDS011;14766;51.380;13.762;2024-02-16T12:28:31;10.00;;;7.40;;
27265;SDS011;14766;51.380;13.762;2024-02-16T12:30:59;11.90;;;7.50;;
27265;SDS011;14766;51.380;13.762;2024-02-16T12:33:29;11.73;;;8.10;;
27265;SDS011;14766;51.380;13.762;2024-02-16T12:35:57;10.00;;;7.75;;
27265;SDS011;14766;51.380;13.762;2024-02-16T12:38:24;13.18;;;8.68;;
27265;SDS011;14766;51.380;13.762;2024-02-16T12:40:51;12.35;;;8.63;;
27265;SDS011;14766;51.380;13.762;2024-02-16T12:43:18;10.95;;;9.10;;
27265;SDS011;14766;51.380;13.762;2024-02-16T12:45:47;11.52;;;8.13;;
27265;SDS011;14766;51.380;13.762;2024-02-16T12:48:16;11.90;;;8.55;;
27265;SDS011;14766;51.380;13.762;2024-02-16T12:50:44;12.05;;;8.30;;
27265;SDS011;14766;51.380;13.762;2024-02-16T12:53:12;11.70;;;9.23;;
27265;SDS011;14766;51.380;13.762;2024-02-16T12:55:39;10.85;;;8.20;;
27265;SDS011;14766;51.380;13.762;2024-02-16T12:58:06;11.75;;;7.50;;
27265;SDS011;14766;51.380;13.762;2024-02-16T13:00:34;12.30;;;8.52;;
27265;SDS011;14766;51.380;13.762;2024-02-16T13:03:03;10.60;;;7.93;;
27265;SDS011;14766;51.380;13.762;2024-02-16T13:05:30;9.48;;;7.47;;
27265;SDS011;14766;51.380;13.762;2024-02-16T13:07:59;11.52;;;8.10;;
27265;SDS011;14766;51.380;13.762;2024-02-16T13:10:27;10.98;;;8.70;;
27265;SDS011;14766;51.380;13.762;2024-02-16T13:12:54;10.05;;;7.95;;
27265;SDS011;14766;51.380;13.762;2024-02-16T13:15:21;10.05;;;8.10;;
27265;SDS011;14766;51.380;13.762;2024-02-16T13:17:54;9.35;;;7.15;;
27265;SDS011;14766;51.380;13.762;2024-02-16T13:20:23;11.88;;;8.25;;
27265;SDS011;14766;51.380;13.762;2024-02-16T13:22:51;10.60;;;8.15;;
27265;SDS011;14766;51.380;13.762;2024-02-16T13:25:18;10.68;;;8.30;;
27265;SDS011;14766;51.380;13.762;2024-02-16T13:27:47;11.05;;;8.23;;
27265;SDS011;14766;51.380;13.762;2024-02-16T13:30:16;12.43;;;8.98;;
27265;SDS011;14766;51.380;13.762;2024-02-16T13:32:43;15.98;;;11.73;;
27265;SDS011;14766;51.380;13.762;2024-02-16T13:35:10;13.55;;;11.18;;
27265;SDS011;14766;51.380;13.762;2024-02-16T13:37:38;11.40;;;9.00;;
27265;SDS011;14766;51.380;13.762;2024-02-16T13:40:05;11.73;;;9.13;;
27265;SDS011;14766;51.380;13.762;2024-02-16T13:42:40;11.07;;;8.38;;
27265;SDS011;14766;51.380;13.762;2024-02-16T13:45:08;12.07;;;8.45;;
27265;SDS011;14766;51.380;13.762;2024-02-16T13:47:40;10.85;;;8.23;;
27265;SDS011;14766;51.380;13.762;2024-02-16T13:50:07;11.00;;;8.45;;
27265;SDS011;14766;51.380;13.762;2024-02-16T13:52:36;10.88;;;8.32;;
27265;SDS011;14766;51.380;13.762;2024-02-16T13:55:03;10.75;;;8.35;;
27265;SDS011;14766;51.380;13.762;2024-02-16T13:57:33;10.85;;;7.55;;
27265;SDS011;14766;51.380;13.762;2024-02-16T14:00:01;10.18;;;7.53;;
27265;SDS011;14766;51.380;13.762;2024-02-16T14:02:38;10.55;;;7.97;;
27265;SDS011;14766;51.380;13.762;2024-02-16T14:05:06;10.93;;;8.32;;
27265;SDS011;14766;51.380;13.762;2024-02-16T14:07:35;10.68;;;7.72;;
27265;SDS011;14766;51.380;13.762;2024-02-16T14:10:15;10.32;;;7.80;;
27265;SDS011;14766;51.380;13.762;2024-02-16T14:12:44;8.60;;;7.22;;
27265;SDS011;14766;51.380;13.762;2024-02-16T14:15:13;11.55;;;7.63;;
27265;SDS011;14766;51.380;13.762;2024-02-16T14:17:43;11.43;;;7.65;;
27265;SDS011;14766;51.380;13.762;2024-02-16T14:20:13;10.80;;;7.38;;
27265;SDS011;14766;51.380;13.762;2024-02-16T14:22:40;10.30;;;7.80;;
27265;SDS011;14766;51.380;13.762;2024-02-16T14:25:08;10.32;;;7.53;;